.
WxDataArchive / Data Records for 2014-12-17
2014-12-16 December 2014 2014-12-18

Data Records for Wednesday, 17 December 2014

Time	Temp	Chill	HIndex	Humid	Dewpt	 Wind 	HiWind	WindDir	Rain 	Barom
-----	----	-----	------	-----	-----	------	------	-------	-----	-----
00:00	35.0	35.0	35.0	89	32.1	2	4	270	0.00	30.025 
00:05	34.9	34.9	34.9	89	32.0	3	6	270	0.00	30.025 
00:10	34.9	34.9	34.9	88	31.7	2	5	270	0.00	30.025 
00:15	34.9	34.9	34.9	88	31.7	2	5	270	0.00	30.028 
00:20	34.9	34.9	34.9	88	31.7	1	3	270	0.00	30.028 
00:25	34.7	34.7	34.7	88	31.5	1	4	270	0.00	30.028 
00:30	34.7	34.7	34.7	88	31.5	1	5	270	0.00	30.030 
00:35	34.6	34.6	34.6	89	31.7	2	4	270	0.00	30.030 
00:40	34.6	34.6	34.6	89	31.7	2	4	270	0.00	30.030 
00:45	34.4	34.4	34.4	89	31.5	2	5	270	0.00	30.032 
00:50	34.3	34.3	34.3	88	31.1	3	5	270	0.00	30.032 
00:55	34.3	34.3	34.3	88	31.1	3	6	270	0.00	30.032 
01:00	34.3	34.3	34.3	88	31.1	2	4	315	0.00	30.035 
01:05	34.3	34.3	34.3	87	30.8	3	5	270	0.00	30.035 
01:10	34.1	34.1	34.1	87	30.6	3	6	270	0.00	30.035 
01:15	34.1	34.1	34.1	86	30.4	3	6	270	0.00	30.040 
01:20	34.1	34.1	34.1	86	30.4	2	5	270	0.00	30.040 
01:25	34.1	34.1	34.1	86	30.4	2	4	270	0.00	30.040 
01:30	34.1	34.1	34.1	86	30.4	2	4	270	0.00	30.044 
01:35	34.1	34.1	34.1	86	30.4	3	6	270	0.00	30.044 
01:40	33.8	33.8	33.8	86	30.1	2	5	270	0.00	30.044 
01:45	33.7	33.7	33.7	87	30.3	1	4	270	0.00	30.045 
01:50	33.5	33.5	33.5	87	30.1	2	4	270	0.00	30.045 
01:55	33.4	33.4	33.4	87	30.0	2	5	270	0.00	30.045 
02:00	33.4	33.4	33.4	88	30.2	2	5	248	0.00	30.052 
02:05	33.2	33.2	33.2	88	30.0	1	3	248	0.00	30.052 
02:10	33.1	33.1	33.1	88	29.9	2	3	292	0.00	30.052 
02:15	32.9	32.9	32.9	89	30.0	1	4	270	0.00	30.058 
02:20	32.9	32.9	32.9	89	30.0	2	6	315	0.00	30.058 
02:25	32.8	32.8	32.8	89	29.9	3	5	292	0.00	30.058 
02:30	32.8	32.8	32.8	89	29.9	2	5	270	0.00	30.063 
02:35	32.8	32.8	32.8	89	29.9	2	4	270	0.00	30.063 
02:40	32.9	32.9	32.9	88	29.7	3	9	270	0.00	30.063 
02:45	32.9	32.9	32.9	88	29.7	2	5	270	0.00	30.072 
02:50	32.9	32.9	32.9	88	29.7	3	6	270	0.00	30.072 
02:55	32.9	32.9	32.9	88	29.7	3	6	270	0.00	30.072 
03:00	32.9	32.9	32.9	88	29.7	2	6	270	0.00	30.076 
03:05	32.8	32.8	32.8	88	29.6	2	6	270	0.00	30.076 
03:10	32.8	32.8	32.8	88	29.6	1	3	292	0.00	30.076 
03:15	32.8	32.8	32.8	89	29.9	1	3	270	0.00	30.077 
03:20	32.7	32.7	32.7	89	29.8	2	5	270	0.00	30.077 
03:25	32.5	32.5	32.5	89	29.6	3	6	270	0.00	30.077 
03:30	32.4	32.4	32.4	88	29.3	3	6	270	0.00	30.081 
03:35	32.4	32.4	32.4	87	29.0	3	7	270	0.00	30.081 
03:40	32.5	32.5	32.5	86	28.8	2	5	292	0.00	30.081 
03:45	32.5	32.5	32.5	85	28.5	3	6	270	0.00	30.084 
03:50	32.5	28.7	32.5	84	28.2	4	6	270	0.00	30.084 
03:55	32.5	32.5	32.5	82	27.6	3	9	270	0.00	30.084 
04:00	32.5	32.5	32.5	81	27.3	3	12	270	0.00	30.079 
04:05	32.5	32.5	32.5	80	27.0	3	6	270	0.00	30.079 
04:10	32.4	32.4	32.4	79	26.6	3	7	270	0.00	30.079 
04:15	32.4	32.4	32.4	79	26.6	3	6	270	0.00	30.089 
04:20	32.4	32.4	32.4	79	26.6	2	5	248	0.00	30.089 
04:25	32.2	32.2	32.2	79	26.4	3	6	270	0.00	30.089 
04:30	32.2	32.2	32.2	79	26.4	3	9	270	0.00	30.088 
04:35	32.2	32.2	32.2	79	26.4	3	7	270	0.00	30.088 
04:40	32.1	32.1	32.1	79	26.3	3	7	270	0.00	30.088 
04:45	32.1	32.1	32.1	79	26.3	2	5	270	0.00	30.091 
04:50	32.1	32.1	32.1	78	26.0	3	11	270	0.00	30.091 
04:55	32.1	32.1	32.1	79	26.3	2	7	248	0.00	30.091 
05:00	32.1	32.1	32.1	79	26.3	2	7	270	0.00	30.093 
05:05	32.1	32.1	32.1	79	26.3	3	6	270	0.00	30.093 
05:10	32.1	32.1	32.1	79	26.3	2	6	270	0.00	30.093 
05:15	32.1	32.1	32.1	79	26.3	2	9	292	0.00	30.101 
05:20	32.1	32.1	32.1	78	26.0	2	6	292	0.00	30.101 
05:25	31.9	31.9	31.9	77	25.5	3	6	270	0.00	30.101 
05:30	31.9	31.9	31.9	77	25.5	3	9	270	0.00	30.106 
05:35	31.9	31.9	31.9	77	25.5	2	4	270	0.00	30.106 
05:40	31.9	31.9	31.9	77	25.5	2	6	270	0.00	30.106 
05:45	31.9	31.9	31.9	77	25.5	2	5	270	0.00	30.108 
05:50	31.9	31.9	31.9	77	25.5	3	6	270	0.00	30.108 
05:55	31.8	31.8	31.8	77	25.4	3	6	270	0.00	30.108 
06:00	31.8	31.8	31.8	77	25.4	3	5	270	0.00	30.116 
06:05	31.6	31.6	31.6	77	25.2	3	5	270	0.00	30.116 
06:10	31.5	31.5	31.5	77	25.1	3	9	270	0.00	30.116 
06:15	31.5	31.5	31.5	77	25.1	2	5	292	0.00	30.124 
06:20	31.3	31.3	31.3	77	24.9	3	5	270	0.00	30.124 
06:25	31.3	31.3	31.3	76	24.6	3	5	270	0.00	30.124 
06:30	31.2	27.2	31.2	74	23.9	4	6	270	0.00	30.130 
06:35	31.2	31.2	31.2	74	23.9	3	7	270	0.00	30.130 
06:40	31.2	31.2	31.2	73	23.6	3	6	270	0.00	30.130 
06:45	31.2	27.2	31.2	73	23.6	4	9	270	0.00	30.129 
06:50	31.2	31.2	31.2	73	23.6	3	6	248	0.00	30.129 
06:55	31.2	31.2	31.2	73	23.6	3	6	338	0.00	30.129 
07:00	31.2	31.2	31.2	73	23.6	2	9	292	0.00	30.136 
07:05	31.2	31.2	31.2	74	23.9	3	9	270	0.00	30.136 
07:10	31.0	31.0	31.0	74	23.7	2	4	315	0.00	30.136 
07:15	31.0	31.0	31.0	75	24.0	1	4	315	0.00	30.143 
07:20	31.0	31.0	31.0	75	24.0	2	6	270	0.00	30.143 
07:25	30.9	30.9	30.9	75	23.9	3	9	315	0.00	30.143 
07:30	30.9	30.9	30.9	75	23.9	2	4	270	0.00	30.147 
07:35	30.7	30.7	30.7	76	24.0	1	6	270	0.00	30.147 
07:40	30.7	30.7	30.7	76	24.0	3	6	270	0.00	30.147 
07:45	30.4	26.2	30.4	75	23.4	4	9	315	0.00	30.154 
07:50	30.3	30.3	30.3	76	23.7	2	5	338	0.00	30.154 
07:55	30.1	25.9	30.1	75	23.2	4	7	292	0.00	30.154 
08:00	30.0	30.0	30.0	76	23.4	3	6	292	0.00	30.160 
08:05	30.0	30.0	30.0	75	23.1	3	7	292	0.00	30.160 
08:10	29.8	29.8	29.8	75	22.9	2	5	270	0.00	30.160 
08:15	29.8	29.8	29.8	75	22.9	2	6	338	0.00	30.162 
08:20	29.7	29.7	29.7	76	23.1	2	6	248	0.00	30.162 
08:25	29.7	29.7	29.7	76	23.1	1	3	270	0.00	30.162 
08:30	29.7	29.7	29.7	75	22.8	3	7	292	0.00	30.162 
08:35	29.7	29.7	29.7	76	23.1	1	5	292	0.00	30.162 
08:40	29.7	29.7	29.7	76	23.1	2	4	248	0.00	30.162 
08:45	29.7	29.7	29.7	76	23.1	2	3	248	0.00	30.164 
08:50	29.8	29.8	29.8	77	23.5	1	5	248	0.00	30.164 
08:55	29.8	29.8	29.8	77	23.5	2	6	270	0.00	30.164 
09:00	30.0	30.0	30.0	77	23.7	2	4	292	0.00	30.163 
09:05	30.0	30.0	30.0	76	23.4	2	5	292	0.00	30.163 
09:10	30.0	30.0	30.0	76	23.4	2	5	292	0.00	30.163 
09:15	30.0	30.0	30.0	77	23.7	2	4	270	0.00	30.169 
09:20	30.0	30.0	30.0	77	23.7	3	6	270	0.00	30.169 
09:25	30.0	30.0	30.0	77	23.7	2	4	270	0.00	30.169 
09:30	30.0	30.0	30.0	77	23.7	3	6	292	0.00	30.175 
09:35	29.8	29.8	29.8	77	23.5	2	5	270	0.00	30.175 
09:40	29.8	29.8	29.8	77	23.5	2	5	270	0.00	30.175 
09:45	29.8	29.8	29.8	76	23.2	3	6	270	0.00	30.179 
09:50	29.8	29.8	29.8	75	22.9	3	5	292	0.00	30.179 
09:55	30.0	30.0	30.0	76	23.4	2	3	270	0.00	30.179 
10:00	30.0	30.0	30.0	77	23.7	2	5	270	0.00	30.183 
10:05	30.0	30.0	30.0	78	24.0	2	5	270	0.00	30.183 
10:10	29.8	29.8	29.8	79	24.1	2	5	270	0.00	30.183 
10:15	29.7	29.7	29.7	80	24.3	2	4	248	0.00	30.192 
10:20	29.5	29.5	29.5	81	24.4	2	4	248	0.00	30.192 
10:25	29.5	29.5	29.5	81	24.4	2	5	248	0.00	30.192 
10:30	29.4	29.4	29.4	81	24.3	3	5	270	0.00	30.194 
10:35	29.3	29.3	29.3	81	24.2	2	4	270	0.00	30.194 
10:40	29.3	29.3	29.3	81	24.2	1	4	270	0.00	30.194 
10:45	29.3	29.3	29.3	81	24.2	1	3	270	0.00	30.196 
10:50	29.4	29.4	29.4	82	24.6	1	3	270	0.00	30.196 
10:55	29.4	29.4	29.4	82	24.6	1	3	248	0.00	30.196 
11:00	29.3	29.3	29.3	82	24.5	1	7	248	0.00	30.196 
11:05	29.3	29.3	29.3	82	24.5	1	2	248	0.00	30.196 
11:10	29.1	29.1	29.1	82	24.3	1	4	248	0.00	30.196 
11:15	29.1	29.1	29.1	82	24.3	1	3	248	0.00	30.194 
11:20	29.1	29.1	29.1	81	24.0	1	3	248	0.00	30.194 
11:25	29.1	29.1	29.1	81	24.0	1	4	248	0.00	30.194 
11:30	29.1	29.1	29.1	81	24.0	1	4	248	0.00	30.197 
11:35	29.1	29.1	29.1	80	23.7	2	4	270	0.00	30.197 
11:40	29.0	29.0	29.0	80	23.6	2	4	270	0.00	30.197 
11:45	29.0	29.0	29.0	80	23.6	2	4	270	0.00	30.192 
11:50	29.0	29.0	29.0	80	23.6	0	2	270	0.00	30.192 
11:55	29.0	29.0	29.0	79	23.3	2	6	270	0.00	30.192 
12:00	28.8	28.8	28.8	78	22.8	2	4	248	0.00	30.191 
12:05	28.8	28.8	28.8	78	22.8	2	4	270	0.00	30.191 
12:10	28.8	28.8	28.8	78	22.8	2	4	270	0.00	30.191 
12:15	29.0	29.0	29.0	78	23.0	1	6	248	0.00	30.186 
12:20	29.0	29.0	29.0	78	23.0	1	4	248	0.00	30.186 
12:25	28.8	28.8	28.8	77	22.5	2	5	248	0.00	30.186 
12:30	28.8	28.8	28.8	78	22.8	1	2	270	0.00	30.185 
12:35	28.7	28.7	28.7	79	23.0	2	4	270	0.00	30.185 
12:40	28.7	28.7	28.7	79	23.0	1	3	270	0.00	30.185 
12:45	28.7	28.7	28.7	80	23.3	1	5	315	0.00	30.178 
12:50	28.5	28.5	28.5	79	22.8	2	5	292	0.00	30.178 
12:55	28.4	28.4	28.4	80	23.0	1	4	248	0.00	30.178 
13:00	28.2	28.2	28.2	79	22.5	2	6	248	0.00	30.173 
13:05	28.2	28.2	28.2	80	22.8	1	4	270	0.00	30.173 
13:10	28.2	28.2	28.2	79	22.5	2	4	248	0.00	30.173 
13:15	28.2	28.2	28.2	80	22.8	1	4	270	0.00	30.174 
13:20	28.2	28.2	28.2	80	22.8	2	4	270	0.00	30.174 
13:25	28.2	28.2	28.2	81	23.1	1	3	270	0.00	30.174 
13:30	28.2	28.2	28.2	81	23.1	1	4	248	0.00	30.170 
13:35	28.2	28.2	28.2	81	23.1	1	3	248	0.00	30.170 
13:40	28.2	28.2	28.2	82	23.4	1	4	248	0.00	30.170 
13:45	28.2	28.2	28.2	82	23.4	1	4	248	0.00	30.167 
13:50	28.2	28.2	28.2	81	23.1	1	4	248	0.00	30.167 
13:55	28.4	28.4	28.4	81	23.3	1	2	248	0.00	30.167 
14:00	28.4	28.4	28.4	81	23.3	1	4	248	0.00	30.169 
14:05	28.4	28.4	28.4	81	23.3	1	4	248	0.00	30.169 
14:10	28.2	28.2	28.2	81	23.1	2	4	248	0.00	30.169 
14:15	28.2	28.2	28.2	81	23.1	1	3	248	0.00	30.170 
14:20	28.1	28.1	28.1	79	22.4	3	5	270	0.00	30.170 
14:25	27.9	27.9	27.9	77	21.6	3	6	270	0.00	30.170 
14:30	28.1	28.1	28.1	77	21.8	2	6	292	0.00	30.170 
14:35	28.1	28.1	28.1	76	21.5	2	6	292	0.00	30.170 
14:40	27.9	27.9	27.9	75	21.0	3	5	270	0.00	30.170 
14:45	27.9	27.9	27.9	75	21.0	2	5	292	0.00	30.170 
14:50	27.9	27.9	27.9	75	21.0	2	4	338	0.00	30.170 
14:55	28.1	28.1	28.1	75	21.2	1	3	292	0.00	30.170 
15:00	28.1	28.1	28.1	75	21.2	1	3	292	0.00	30.172 
15:05	28.1	28.1	28.1	75	21.2	2	4	292	0.00	30.172 
15:10	27.9	27.9	27.9	75	21.0	2	5	270	0.00	30.172 
15:15	27.8	27.8	27.8	76	21.2	1	3	270	0.00	30.175 
15:20	27.8	27.8	27.8	76	21.2	1	3	270	0.00	30.175 
15:25	27.6	27.6	27.6	76	21.0	2	5	292	0.00	30.175 
15:30	27.6	27.6	27.6	77	21.4	2	4	292	0.00	30.176 
15:35	27.5	27.5	27.5	77	21.3	1	3	292	0.00	30.176 
15:40	27.5	27.5	27.5	77	21.3	2	3	292	0.00	30.176 
15:45	27.3	27.3	27.3	78	21.4	1	4	292	0.00	30.173 
15:50	27.3	27.3	27.3	78	21.4	1	3	270	0.00	30.173 
15:55	27.2	27.2	27.2	79	21.6	1	3	270	0.00	30.173 
16:00	27.2	27.2	27.2	79	21.6	1	3	270	0.00	30.177 
16:05	27.2	27.2	27.2	80	21.9	1	2	270	0.00	30.177 
16:10	27.2	27.2	27.2	80	21.9	1	3	315	0.00	30.177 
16:15	27.2	27.2	27.2	80	21.9	1	4	315	0.00	30.186 
16:20	27.2	27.2	27.2	80	21.9	0	3	315	0.00	30.186 
16:25	27.2	27.2	27.2	80	21.9	1	3	270	0.00	30.186 
16:30	27.2	27.2	27.2	80	21.9	0	2	270	0.00	30.188 
16:35	27.2	27.2	27.2	80	21.9	1	5	270	0.00	30.188 
16:40	27.2	27.2	27.2	79	21.6	2	4	270	0.00	30.188 
16:45	27.0	27.0	27.0	79	21.4	1	4	270	0.00	30.194 
16:50	27.0	27.0	27.0	79	21.4	1	4	292	0.00	30.194 
16:55	27.0	27.0	27.0	79	21.4	1	2	292	0.00	30.194 
17:00	27.0	27.0	27.0	79	21.4	2	3	292	0.00	30.209 
17:05	27.0	27.0	27.0	79	21.4	1	3	292	0.00	30.209 
17:10	27.0	27.0	27.0	79	21.4	2	3	292	0.00	30.209 
17:15	27.0	27.0	27.0	79	21.4	1	3	292	0.00	30.214 
17:20	26.9	26.9	26.9	78	21.0	1	4	292	0.00	30.214 
17:25	27.0	27.0	27.0	79	21.4	1	3	270	0.00	30.214 
17:30	26.9	26.9	26.9	78	21.0	2	4	270	0.00	30.211 
17:35	26.9	26.9	26.9	78	21.0	2	4	270	0.00	30.211 
17:40	27.0	27.0	27.0	78	21.1	1	3	248	0.00	30.211 
17:45	27.0	27.0	27.0	78	21.1	1	3	248	0.00	30.212 
17:50	26.9	26.9	26.9	78	21.0	2	4	270	0.00	30.212 
17:55	26.9	26.9	26.9	78	21.0	1	4	270	0.00	30.212 
18:00	26.9	26.9	26.9	78	21.0	2	4	270	0.00	30.219 
18:05	26.9	26.9	26.9	78	21.0	0	2	270	0.00	30.219 
18:10	26.9	26.9	26.9	78	21.0	1	3	270	0.00	30.219 
18:15	26.9	26.9	26.9	77	20.7	1	4	270	0.00	30.220 
18:20	26.9	26.9	26.9	77	20.7	1	3	270	0.00	30.220 
18:25	26.9	26.9	26.9	77	20.7	1	5	270	0.00	30.220 
18:30	27.0	27.0	27.0	78	21.1	0	2	270	0.00	30.226 
18:35	26.9	26.9	26.9	78	21.0	2	3	292	0.00	30.226 
18:40	26.9	26.9	26.9	78	21.0	1	3	270	0.00	30.226 
18:45	26.7	26.7	26.7	78	20.8	1	3	270	0.00	30.233 
18:50	26.7	26.7	26.7	78	20.8	1	2	270	0.00	30.233 
18:55	26.7	26.7	26.7	78	20.8	1	4	270	0.00	30.233 
19:00	26.7	26.7	26.7	78	20.8	1	2	248	0.00	30.233 
19:05	26.6	26.6	26.6	78	20.7	0	2	248	0.00	30.233 
19:10	26.7	26.7	26.7	78	20.8	1	2	248	0.00	30.233 
19:15	26.6	26.6	26.6	79	21.0	0	5	248	0.00	30.237 
19:20	26.6	26.6	26.6	78	20.7	1	3	248	0.00	30.237 
19:25	26.6	26.6	26.6	78	20.7	1	3	248	0.00	30.237 
19:30	26.4	26.4	26.4	78	20.5	0	3	248	0.00	30.232 
19:35	26.4	26.4	26.4	78	20.5	1	4	248	0.00	30.232 
19:40	26.4	26.4	26.4	78	20.5	0	3	248	0.00	30.232 
19:45	26.4	26.4	26.4	78	20.5	0	2	248	0.00	30.236 
19:50	26.4	26.4	26.4	78	20.5	0	3	248	0.00	30.236 
19:55	26.6	26.6	26.6	78	20.7	0	3	248	0.00	30.236 
20:00	26.4	26.4	26.4	78	20.5	0	3	248	0.00	30.236 
20:05	26.6	26.6	26.6	78	20.7	0	2	248	0.00	30.236 
20:10	26.6	26.6	26.6	77	20.4	1	3	248	0.00	30.236 
20:15	26.6	26.6	26.6	77	20.4	0	2	248	0.00	30.236 
20:20	26.6	26.6	26.6	77	20.4	1	3	248	0.00	30.236 
20:25	26.4	26.4	26.4	77	20.2	1	3	248	0.00	30.236 
20:30	26.6	26.6	26.6	77	20.4	1	2	248	0.00	30.237 
20:35	26.6	26.6	26.6	77	20.4	1	3	248	0.00	30.237 
20:40	26.6	26.6	26.6	77	20.4	1	3	248	0.00	30.237 
20:45	26.6	26.6	26.6	77	20.4	0	3	248	0.00	30.242 
20:50	26.6	26.6	26.6	77	20.4	0	2	248	0.00	30.242 
20:55	26.6	26.6	26.6	77	20.4	0	3	248	0.00	30.242 
21:00	26.6	26.6	26.6	77	20.4	0	2	248	0.00	30.246 
21:05	26.6	26.6	26.6	77	20.4	0	3	248	0.00	30.246 
21:10	26.7	26.7	26.7	78	20.8	0	2	248	0.00	30.246 
21:15	26.7	26.7	26.7	78	20.8	0	2	248	0.00	30.250 
21:20	26.7	26.7	26.7	78	20.8	1	3	248	0.00	30.250 
21:25	26.7	26.7	26.7	78	20.8	0	1	248	0.00	30.250 
21:30	26.6	26.6	26.6	77	20.4	1	3	248	0.00	30.243 
21:35	26.6	26.6	26.6	77	20.4	1	3	248	0.00	30.243 
21:40	26.6	26.6	26.6	77	20.4	1	3	248	0.00	30.243 
21:45	26.6	26.6	26.6	77	20.4	1	3	248	0.00	30.246 
21:50	26.6	26.6	26.6	77	20.4	1	4	270	0.00	30.246 
21:55	26.6	26.6	26.6	77	20.4	0	2	270	0.00	30.246 
22:00	26.6	26.6	26.6	77	20.4	0	2	270	0.00	30.251 
22:05	26.6	26.6	26.6	77	20.4	0	2	270	0.00	30.251 
22:10	26.6	26.6	26.6	77	20.4	0	2	270	0.00	30.251 
22:15	26.6	26.6	26.6	77	20.4	1	3	270	0.00	30.241 
22:20	26.6	26.6	26.6	77	20.4	1	3	270	0.00	30.241 
22:25	26.7	26.7	26.7	77	20.5	0	2	270	0.00	30.241 
22:30	26.7	26.7	26.7	77	20.5	0	1	270	0.00	30.252 
22:35	26.7	26.7	26.7	77	20.5	0	1	270	0.00	30.252 
22:40	26.7	26.7	26.7	77	20.5	1	2	270	0.00	30.252 
22:45	26.7	26.7	26.7	77	20.5	0	2	270	0.00	30.252 
22:50	26.9	26.9	26.9	77	20.7	0	2	270	0.00	30.252 
22:55	26.9	26.9	26.9	77	20.7	0	3	292	0.00	30.252 
23:00	26.9	26.9	26.9	77	20.7	0	2	270	0.00	30.253 
23:05	26.9	26.9	26.9	77	20.7	0	2	270	0.00	30.253 
23:10	27.0	27.0	27.0	77	20.8	0	1	270	0.00	30.253 
23:15	27.0	27.0	27.0	77	20.8	1	2	270	0.00	30.253 
23:20	27.0	27.0	27.0	77	20.8	0	2	270	0.00	30.253 
23:25	27.0	27.0	27.0	77	20.8	0	2	270	0.00	30.253 
23:30	27.0	27.0	27.0	77	20.8	0	3	270	0.00	30.260 
23:35	27.0	27.0	27.0	77	20.8	0	2	270	0.00	30.260 
23:40	26.9	26.9	26.9	77	20.7	0	1	270	0.00	30.260 
23:45	26.9	26.9	26.9	77	20.7	0	1	270	0.00	30.261 
23:50	26.9	26.9	26.9	77	20.7	0	1	270	0.00	30.261 
23:55	26.9	26.9	26.9	77	20.7	0	2	270	0.00	30.261 

CoCoRaHS
IN-AL-39
A2 Web Hosting
Creative Commons License
GoDaddy
search engine by freefind advanced

loaded 2018-11-12 19:12:14 • last modified 2010-11-18 10:43:29
Privacy PolicyDisclaimer
• wx.awcolley.com is powered by PmWiki v.2002016 •
• all content (unless otherwise noted) © 2018 A W Colley